Time;durP1;ratioP1;P1;durP2;ratioP2;P2;SDS_P1;SDS_P2;PMS_P1;PMS_P2;Temp;Humidity;BMP_temperature;BMP_pressure;BME280_temperature;BME280_humidity;BME280_pressure;Samples;Min_cycle;Max_cycle;Signal;HPM_P1;HPM_P2
2021/08/15 00:01:07;;;;;;;16.80;8.32;;;18.10;99.90;;;;;;5071678;28;20457;-86
2021/08/15 00:03:33;;;;;;;19.05;8.25;;;18.10;99.90;;;;;;5073094;28;20124;-77
2021/08/15 00:05:59;;;;;;;24.38;8.45;;;18.10;99.90;;;;;;5071787;28;20119;-77
2021/08/15 00:08:28;;;;;;;13.93;7.55;;;18.10;99.90;;;;;;5054549;28;20029;-77
2021/08/15 00:10:55;;;;;;;17.40;8.18;;;18.00;99.90;;;;;;5066036;28;20041;-77
2021/08/15 00:13:21;;;;;;;15.77;8.05;;;18.00;99.90;;;;;;5055724;28;20385;-77
2021/08/15 00:15:55;;;;;;;19.55;8.18;;;18.00;99.90;;;;;;5055539;28;20041;-86
2021/08/15 00:18:21;;;;;;;16.38;8.30;;;18.00;99.90;;;;;;5038998;28;20040;-76
2021/08/15 00:20:50;;;;;;;17.58;8.63;;;18.00;99.90;;;;;;5039807;28;20525;-77
2021/08/15 00:23:15;;;;;;;21.73;8.65;;;18.00;99.90;;;;;;5072974;28;20064;-77
2021/08/15 00:25:44;;;;;;;19.73;9.18;;;18.00;99.90;;;;;;5053587;28;20036;-77
2021/08/15 00:28:10;;;;;;;19.58;9.45;;;18.00;99.90;;;;;;5036609;28;20040;-76
2021/08/15 00:30:39;;;;;;;19.48;8.50;;;18.00;99.90;;;;;;5033959;28;20037;-81
2021/08/15 00:33:05;;;;;;;19.38;9.40;;;18.00;99.90;;;;;;5056979;28;20075;-87
2021/08/15 00:35:31;;;;;;;21.95;8.82;;;18.00;99.90;;;;;;5075127;28;20064;-87
2021/08/15 00:37:57;;;;;;;16.10;9.05;;;18.00;99.90;;;;;;5057606;28;20032;-87
2021/08/15 00:40:23;;;;;;;17.75;8.55;;;18.00;99.90;;;;;;5024645;28;20130;-87
2021/08/15 00:42:49;;;;;;;15.63;8.52;;;18.00;99.90;;;;;;5073207;28;20130;-87
2021/08/15 00:45:14;;;;;;;16.88;8.32;;;18.00;99.90;;;;;;5017946;28;20041;-87
2021/08/15 00:47:41;;;;;;;17.75;8.57;;;18.00;99.90;;;;;;5035766;28;20045;-87
2021/08/15 00:50:07;;;;;;;20.50;8.93;;;18.00;99.90;;;;;;5034982;28;20111;-87
2021/08/15 00:52:33;;;;;;;14.90;8.10;;;17.80;99.90;;;;;;5052914;28;20431;-87
2021/08/15 00:55:07;;;;;;;17.55;8.65;;;17.90;99.90;;;;;;5034102;28;20040;-87
2021/08/15 00:57:35;;;;;;;18.90;8.80;;;17.90;99.90;;;;;;5055215;28;20029;-87
2021/08/15 01:00:06;;;;;;;16.10;8.27;;;17.90;99.90;;;;;;5054323;28;20503;-87
2021/08/15 01:02:33;;;;;;;20.40;8.63;;;17.90;99.90;;;;;;5053830;28;20060;-81
2021/08/15 01:05:00;;;;;;;13.18;8.90;;;17.90;99.90;;;;;;5037421;28;20379;-81
2021/08/15 01:07:26;;;;;;;21.15;8.82;;;17.90;99.90;;;;;;5037610;28;20090;-81
2021/08/15 01:09:52;;;;;;;20.00;8.60;;;17.90;99.90;;;;;;5052078;28;20076;-81
2021/08/15 01:12:18;;;;;;;17.90;7.95;;;17.90;99.90;;;;;;5054330;28;20072;-81
2021/08/15 01:14:48;;;;;;;15.50;8.18;;;17.90;99.90;;;;;;5055611;28;20040;-81
2021/08/15 01:17:14;;;;;;;14.38;8.00;;;18.00;99.90;;;;;;5054760;28;20040;-81
2021/08/15 01:19:40;;;;;;;18.25;8.88;;;17.90;99.90;;;;;;5054665;28;20044;-81
2021/08/15 01:22:06;;;;;;;14.77;8.10;;;17.90;99.90;;;;;;5053184;28;20378;-82
2021/08/15 01:24:34;;;;;;;14.27;8.18;;;18.00;99.90;;;;;;5053667;28;20040;-81
2021/08/15 01:27:01;;;;;;;14.45;7.90;;;17.90;99.90;;;;;;5035325;28;20029;-81
2021/08/15 01:29:27;;;;;;;15.07;7.95;;;17.90;99.90;;;;;;5054477;28;20060;-81
2021/08/15 01:31:54;;;;;;;15.38;8.68;;;18.00;99.90;;;;;;5053390;28;20029;-82
2021/08/15 01:34:19;;;;;;;15.38;7.82;;;18.00;99.90;;;;;;5053142;28;20037;-81
2021/08/15 01:36:45;;;;;;;14.73;7.88;;;18.10;99.90;;;;;;5053125;28;20423;-81
2021/08/15 01:39:11;;;;;;;13.73;7.65;;;17.90;99.90;;;;;;5052794;28;20045;-82
2021/08/15 01:41:37;;;;;;;16.52;7.85;;;17.90;99.90;;;;;;5052644;28;20064;-81
2021/08/15 01:44:03;;;;;;;15.73;7.97;;;17.90;99.90;;;;;;5033564;28;20449;-82
2021/08/15 01:46:31;;;;;;;14.00;8.10;;;18.00;99.90;;;;;;5008955;28;20375;-81
2021/08/15 01:48:59;;;;;;;17.77;7.93;;;18.00;99.90;;;;;;5047551;28;20508;-81
2021/08/15 01:51:26;;;;;;;16.60;8.07;;;17.90;99.90;;;;;;5053473;28;20059;-81
2021/08/15 01:53:54;;;;;;;15.93;8.10;;;18.00;99.90;;;;;;5054099;28;20397;-87
2021/08/15 01:56:21;;;;;;;17.00;7.53;;;18.00;99.90;;;;;;5052805;28;20104;-87
2021/08/15 01:58:47;;;;;;;16.23;8.10;;;18.00;99.90;;;;;;5052728;28;20082;-87
2021/08/15 02:01:20;;;;;;;13.30;7.60;;;18.00;99.90;;;;;;5052503;28;20055;-87
2021/08/15 02:03:47;;;;;;;17.83;8.02;;;18.00;99.90;;;;;;5052749;28;20489;-87
2021/08/15 02:06:14;;;;;;;15.85;7.95;;;18.00;99.90;;;;;;5053596;28;20033;-87
2021/08/15 02:08:40;;;;;;;15.25;7.80;;;17.90;99.90;;;;;;5052965;28;20424;-88
2021/08/15 02:11:06;;;;;;;16.58;8.25;;;17.90;99.90;;;;;;5052624;28;20045;-88
2021/08/15 02:13:32;;;;;;;17.75;8.40;;;18.00;99.90;;;;;;5052432;28;20086;-87
2021/08/15 02:15:58;;;;;;;14.30;8.00;;;17.90;99.90;;;;;;5051745;28;20041;-87
2021/08/15 02:18:24;;;;;;;13.00;7.75;;;18.00;99.90;;;;;;5051348;28;20052;-87
2021/08/15 02:20:50;;;;;;;17.10;8.35;;;17.90;99.90;;;;;;5036108;28;20072;-87
2021/08/15 02:23:16;;;;;;;14.27;7.70;;;17.90;99.90;;;;;;5036378;28;20068;-87
2021/08/15 02:25:42;;;;;;;16.90;7.97;;;17.90;99.90;;;;;;5035806;28;20454;-86
2021/08/15 02:28:08;;;;;;;16.08;7.68;;;17.90;99.90;;;;;;5052362;28;20041;-87
2021/08/15 02:30:35;;;;;;;14.98;7.80;;;17.80;99.90;;;;;;5053089;28;20044;-87
2021/08/15 02:33:01;;;;;;;15.45;7.13;;;17.80;99.90;;;;;;5052357;28;20161;-87
2021/08/15 02:35:31;;;;;;;13.52;7.07;;;17.80;99.90;;;;;;5034103;28;20438;-87
2021/08/15 02:37:57;;;;;;;14.35;7.82;;;17.80;99.90;;;;;;5053382;28;20033;-87
2021/08/15 02:40:23;;;;;;;15.20;7.45;;;17.80;99.90;;;;;;5052184;28;20032;-87
2021/08/15 02:42:50;;;;;;;16.10;7.10;;;17.80;99.90;;;;;;5053335;28;20032;-87
2021/08/15 02:45:24;;;;;;;12.82;8.00;;;17.80;99.90;;;;;;5044076;28;20052;-81
2021/08/15 02:47:50;;;;;;;21.88;8.20;;;17.80;99.90;;;;;;5069641;28;20112;-82
2021/08/15 02:50:17;;;;;;;14.05;7.07;;;17.80;99.90;;;;;;5064865;28;20412;-81
2021/08/15 02:52:43;;;;;;;16.00;7.30;;;17.80;99.90;;;;;;5061795;28;20036;-81
2021/08/15 02:55:10;;;;;;;15.20;7.90;;;17.80;99.90;;;;;;5067530;28;20107;-81
2021/08/15 02:57:36;;;;;;;25.42;8.13;;;17.80;99.90;;;;;;5064470;28;20037;-81
2021/08/15 03:00:07;;;;;;;13.68;6.95;;;17.90;99.90;;;;;;5070669;28;20481;-81
2021/08/15 03:02:34;;;;;;;13.98;7.35;;;17.80;99.90;;;;;;5063862;28;20473;-87
2021/08/15 03:05:00;;;;;;;19.10;7.68;;;17.80;99.90;;;;;;5054024;28;20075;-88
2021/08/15 03:07:26;;;;;;;13.32;7.82;;;17.80;99.90;;;;;;5044973;28;20052;-87
2021/08/15 03:09:53;;;;;;;14.18;7.93;;;17.90;99.90;;;;;;5055327;28;20393;-88
2021/08/15 03:12:19;;;;;;;14.55;7.35;;;17.90;99.90;;;;;;5050636;28;20139;-87
2021/08/15 03:14:47;;;;;;;17.55;7.50;;;17.90;99.90;;;;;;5059135;28;20107;-88
2021/08/15 03:17:13;;;;;;;14.73;8.05;;;17.90;99.90;;;;;;5043978;28;20029;-87
2021/08/15 03:19:40;;;;;;;13.02;8.10;;;17.80;99.90;;;;;;5069727;28;20116;-87
2021/08/15 03:22:07;;;;;;;15.43;8.68;;;17.90;99.90;;;;;;5020128;28;20127;-87
2021/08/15 03:24:34;;;;;;;14.35;8.30;;;17.80;99.90;;;;;;5060662;28;20033;-87
2021/08/15 03:27:00;;;;;;;16.45;8.05;;;17.90;99.90;;;;;;5066076;28;20028;-87
2021/08/15 03:29:26;;;;;;;15.05;8.20;;;17.90;99.90;;;;;;5071485;28;20040;-87
2021/08/15 03:31:52;;;;;;;13.32;7.60;;;17.90;99.90;;;;;;5069371;28;20036;-87
2021/08/15 03:34:21;;;;;;;16.67;8.02;;;17.90;99.90;;;;;;5064966;28;20033;-87
2021/08/15 03:36:48;;;;;;;14.90;7.82;;;17.90;99.90;;;;;;5063479;28;20041;-87
2021/08/15 03:39:14;;;;;;;15.75;8.32;;;17.90;99.90;;;;;;5071382;28;20036;-87
2021/08/15 03:41:40;;;;;;;16.05;7.95;;;17.80;99.90;;;;;;5063698;28;20566;-87
2021/08/15 03:44:07;;;;;;;13.88;8.05;;;17.80;99.90;;;;;;5053065;28;20079;-87
2021/08/15 03:46:35;;;;;;;15.65;8.52;;;17.80;99.90;;;;;;5051019;28;20040;-87
2021/08/15 03:49:02;;;;;;;15.63;8.23;;;17.80;99.90;;;;;;5049913;28;20060;-81
2021/08/15 03:51:28;;;;;;;14.13;7.43;;;17.90;99.90;;;;;;5033699;28;20052;-81
2021/08/15 03:53:54;;;;;;;17.65;8.88;;;17.90;99.90;;;;;;5051290;28;20056;-82
2021/08/15 03:56:20;;;;;;;18.70;8.73;;;17.90;99.90;;;;;;5050987;28;20056;-81
2021/08/15 03:58:45;;;;;;;14.65;9.00;;;18.30;99.90;;;;;;5051013;28;20110;-81
2021/08/15 04:01:12;;;;;;;15.75;8.27;;;17.90;99.90;;;;;;5034227;28;20037;-82
2021/08/15 04:03:42;;;;;;;16.83;8.52;;;17.90;99.90;;;;;;5034505;28;20041;-82
2021/08/15 04:06:09;;;;;;;14.52;8.00;;;17.90;99.90;;;;;;5051030;28;20045;-82
2021/08/15 04:08:36;;;;;;;18.23;8.70;;;17.90;99.90;;;;;;5035750;28;20049;-82
2021/08/15 04:11:02;;;;;;;16.35;8.63;;;17.90;99.90;;;;;;5055998;28;20045;-82
2021/08/15 04:13:28;;;;;;;17.02;8.63;;;17.90;99.90;;;;;;5054904;28;20060;-82
2021/08/15 04:15:54;;;;;;;14.13;8.65;;;17.90;99.90;;;;;;5055961;28;20057;-81
2021/08/15 04:18:20;;;;;;;15.40;8.70;;;17.90;99.90;;;;;;5055473;28;20029;-81
2021/08/15 04:20:46;;;;;;;16.25;8.45;;;17.90;99.90;;;;;;5055872;28;20037;-82
2021/08/15 04:23:11;;;;;;;15.65;8.95;;;17.90;99.90;;;;;;5053107;28;20087;-81
2021/08/15 04:25:37;;;;;;;15.52;8.35;;;17.90;99.90;;;;;;5037447;28;20036;-82
2021/08/15 04:28:04;;;;;;;14.10;7.97;;;17.90;99.90;;;;;;5055570;28;20119;-81
2021/08/15 04:30:31;;;;;;;18.42;8.32;;;17.90;99.90;;;;;;5055507;28;20037;-82
2021/08/15 04:32:57;;;;;;;16.85;8.25;;;17.90;99.90;;;;;;5054436;28;20106;-82
2021/08/15 04:35:23;;;;;;;14.38;8.43;;;17.90;99.90;;;;;;5037535;28;20040;-82
2021/08/15 04:37:48;;;;;;;17.60;8.60;;;17.90;99.90;;;;;;5036224;28;20031;-82
2021/08/15 04:40:14;;;;;;;18.25;7.75;;;17.90;99.90;;;;;;5054920;28;20043;-82
2021/08/15 04:42:40;;;;;;;18.05;8.13;;;17.90;99.90;;;;;;5037445;28;20040;-82
2021/08/15 04:45:11;;;;;;;13.88;8.00;;;17.80;99.90;;;;;;5044740;28;20048;-81
2021/08/15 04:47:38;;;;;;;17.13;8.15;;;17.90;99.90;;;;;;5071549;28;20033;-82
2021/08/15 04:50:04;;;;;;;15.77;8.13;;;17.80;99.90;;;;;;5054108;28;20041;-82
2021/08/15 04:52:33;;;;;;;15.85;8.02;;;17.70;99.90;;;;;;5037592;28;20045;-82
2021/08/15 04:54:59;;;;;;;14.48;8.27;;;17.90;99.90;;;;;;5058130;28;20045;-82
2021/08/15 04:57:25;;;;;;;15.80;9.00;;;17.90;99.90;;;;;;5068981;28;20041;-82
2021/08/15 04:59:51;;;;;;;14.25;8.25;;;17.80;99.90;;;;;;5074088;28;20039;-81
2021/08/15 05:02:17;;;;;;;15.30;8.25;;;17.80;99.90;;;;;;5068879;28;20504;-81
2021/08/15 05:04:43;;;;;;;14.23;8.55;;;17.80;99.90;;;;;;5052755;28;20025;-87
2021/08/15 05:07:08;;;;;;;16.35;8.40;;;17.90;99.90;;;;;;5054744;28;20041;-87
2021/08/15 05:09:42;;;;;;;16.10;7.90;;;17.80;99.90;;;;;;5072300;28;20538;-87
2021/08/15 05:12:08;;;;;;;11.90;8.02;;;17.80;99.90;;;;;;5074069;28;20041;-87
2021/08/15 05:14:34;;;;;;;14.85;8.35;;;17.80;99.90;;;;;;5033404;28;20066;-87
2021/08/15 05:17:00;;;;;;;14.07;8.45;;;17.80;99.90;;;;;;5073373;28;20033;-87
2021/08/15 05:19:26;;;;;;;18.05;8.82;;;17.80;99.90;;;;;;5046550;28;20037;-87
2021/08/15 05:21:53;;;;;;;14.20;8.40;;;17.80;99.90;;;;;;5057009;28;20032;-87
2021/08/15 05:24:19;;;;;;;18.55;8.90;;;17.70;99.90;;;;;;5027138;28;20051;-87
2021/08/15 05:26:45;;;;;;;16.42;8.65;;;17.80;99.90;;;;;;5050351;28;20542;-87
2021/08/15 05:29:13;;;;;;;16.65;8.38;;;17.80;99.90;;;;;;5047376;28;20145;-87
2021/08/15 05:31:39;;;;;;;14.98;8.25;;;17.80;99.90;;;;;;5057106;28;20048;-87
2021/08/15 05:34:05;;;;;;;12.02;7.82;;;17.80;99.90;;;;;;5072493;28;20033;-87
2021/08/15 05:36:31;;;;;;;14.57;8.07;;;17.80;99.90;;;;;;5053154;28;20032;-87
2021/08/15 05:38:59;;;;;;;16.25;7.75;;;17.80;99.90;;;;;;5069201;28;20040;-87
2021/08/15 05:41:25;;;;;;;13.52;7.88;;;17.80;99.90;;;;;;5028509;28;20048;-87
2021/08/15 05:43:51;;;;;;;15.73;8.45;;;17.60;99.90;;;;;;5052991;28;20045;-87
2021/08/15 05:46:17;;;;;;;13.70;8.05;;;17.90;99.90;;;;;;5039844;28;20060;-87
2021/08/15 05:48:45;;;;;;;12.73;7.85;;;17.90;99.90;;;;;;5040502;28;20492;-87
2021/08/15 05:51:11;;;;;;;15.32;7.57;;;17.80;99.90;;;;;;5056202;28;20141;-86
2021/08/15 05:53:38;;;;;;;13.63;8.27;;;17.90;99.90;;;;;;5074729;28;20067;-87
2021/08/15 05:56:04;;;;;;;15.70;7.70;;;17.90;99.90;;;;;;5037653;28;20040;-87
2021/08/15 05:58:30;;;;;;;14.63;7.60;;;17.90;99.90;;;;;;5039253;28;20046;-87
2021/08/15 06:00:56;;;;;;;12.98;7.72;;;17.90;99.90;;;;;;5039619;28;20059;-87
2021/08/15 06:03:22;;;;;;;14.57;7.63;;;17.90;99.90;;;;;;5039613;28;20055;-87
2021/08/15 06:05:47;;;;;;;16.55;7.57;;;17.90;99.90;;;;;;5022882;28;20032;-87
2021/08/15 06:08:15;;;;;;;13.13;7.07;;;18.00;99.90;;;;;;5022842;28;20043;-87
2021/08/15 06:10:41;;;;;;;12.68;6.85;;;18.00;99.90;;;;;;5074139;28;20440;-87
2021/08/15 06:13:09;;;;;;;12.32;7.07;;;18.00;99.90;;;;;;5054434;28;20029;-87
2021/08/15 06:15:36;;;;;;;16.13;7.03;;;18.10;99.90;;;;;;5036099;28;20474;-87
2021/08/15 06:18:02;;;;;;;15.18;6.82;;;18.10;99.90;;;;;;5069921;28;20106;-87
2021/08/15 06:20:28;;;;;;;15.57;7.10;;;18.10;99.90;;;;;;5055664;28;20036;-87
2021/08/15 06:22:54;;;;;;;12.98;6.18;;;17.90;99.90;;;;;;5072625;28;20044;-86
2021/08/15 06:25:20;;;;;;;13.45;7.18;;;18.10;99.90;;;;;;5055415;28;20040;-87
2021/08/15 06:27:46;;;;;;;11.77;7.22;;;18.20;99.90;;;;;;5056294;28;20049;-86
2021/08/15 06:30:15;;;;;;;13.52;7.07;;;18.10;99.90;;;;;;5055298;28;20475;-87
2021/08/15 06:33:01;;;;;;;11.45;6.88;;;18.20;99.90;;;;;;5055077;28;20445;-82
2021/08/15 06:35:29;;;;;;;15.45;7.38;;;18.20;99.90;;;;;;5073161;28;20044;-89
2021/08/15 06:37:55;;;;;;;15.25;7.13;;;18.20;99.90;;;;;;5020361;28;20040;-88
2021/08/15 06:40:24;;;;;;;14.00;7.30;;;18.20;99.90;;;;;;5022305;28;20040;-88
2021/08/15 06:42:53;;;;;;;14.30;7.75;;;18.20;99.90;;;;;;5038390;28;20107;-89
2021/08/15 06:45:19;;;;;;;17.42;7.25;;;18.20;99.90;;;;;;5073056;28;20063;-88
2021/08/15 06:47:47;;;;;;;12.98;6.78;;;18.30;99.90;;;;;;5066614;28;20033;-88
2021/08/15 06:50:15;;;;;;;10.13;7.25;;;18.30;99.90;;;;;;5055296;28;20131;-87
2021/08/15 06:52:41;;;;;;;13.82;6.43;;;18.20;99.90;;;;;;5037876;28;20056;-87
2021/08/15 06:55:08;;;;;;;12.88;6.53;;;18.40;99.90;;;;;;5072869;28;20051;-84
2021/08/15 06:57:34;;;;;;;14.52;7.20;;;18.40;99.90;;;;;;5054647;28;20032;-85
2021/08/15 07:00:06;;;;;;;12.30;7.22;;;18.50;99.90;;;;;;5046476;28;20491;-84
2021/08/15 07:02:48;;;;;;;14.27;7.15;;;18.50;99.90;;;;;;5054718;28;20047;-82
2021/08/15 07:05:15;;;;;;;12.27;6.13;;;18.50;99.90;;;;;;5054358;28;20043;-83
2021/08/15 07:07:41;;;;;;;13.05;7.68;;;18.50;99.90;;;;;;5054098;28;20044;-87
2021/08/15 07:10:08;;;;;;;12.57;6.85;;;18.50;99.90;;;;;;5054445;28;20408;-86
2021/08/15 07:12:36;;;;;;;13.23;6.32;;;18.60;99.90;;;;;;5072410;28;20059;-86
2021/08/15 07:15:02;;;;;;;14.10;7.35;;;18.60;99.90;;;;;;5054929;28;20470;-91
2021/08/15 07:17:31;;;;;;;14.07;6.38;;;18.90;99.90;;;;;;5073543;28;20501;-88
2021/08/15 07:20:28;;;;;;;;;;;;;;;;;;;;;
2021/08/15 07:24:05;;;;;;;;;;;;;;;;;;;;;
2021/08/15 07:27:03;;;;;;;;;;;;;;;;;;;;;
2021/08/15 07:30:07;;;;;;;13.23;6.65;;;18.80;99.90;;;;;;5073210;28;20086;-90
2021/08/15 07:33:11;;;;;;;12.55;6.68;;;18.80;99.90;;;;;;5011897;28;20473;-89
2021/08/15 07:35:47;;;;;;;12.77;6.72;;;18.90;99.90;;;;;;5049218;28;20036;-80
2021/08/15 07:38:23;;;;;;;12.10;6.75;;;19.00;99.90;;;;;;5073854;28;20603;-85
2021/08/15 07:40:49;;;;;;;12.45;6.45;;;19.10;99.90;;;;;;5040103;28;20047;-84
2021/08/15 07:43:16;;;;;;;14.07;6.57;;;19.10;99.90;;;;;;5062728;28;20055;-84
2021/08/15 07:45:41;;;;;;;11.95;6.20;;;19.10;99.90;;;;;;5043596;28;20053;-78
2021/08/15 07:48:10;;;;;;;12.45;6.22;;;19.10;99.90;;;;;;5039630;28;20053;-75
2021/08/15 07:50:36;;;;;;;14.50;6.20;;;19.10;99.90;;;;;;5040081;28;20054;-77
2021/08/15 07:53:16;;;;;;;10.63;6.60;;;19.10;99.90;;;;;;5057022;28;20037;-77
2021/08/15 07:55:43;;;;;;;11.73;6.40;;;19.10;99.90;;;;;;5041396;28;20140;-77
2021/08/15 07:58:09;;;;;;;11.73;6.20;;;19.20;99.90;;;;;;5057450;28;20036;-77
2021/08/15 08:00:35;;;;;;;13.75;6.90;;;19.20;99.90;;;;;;5058022;28;20067;-77
2021/08/15 08:03:00;;;;;;;16.17;6.78;;;19.30;99.90;;;;;;5024678;28;20068;-77
2021/08/15 08:05:26;;;;;;;14.40;6.80;;;19.40;99.90;;;;;;5041191;28;20029;-77
2021/08/15 08:07:52;;;;;;;13.80;7.22;;;19.40;99.90;;;;;;5057459;28;20444;-78
2021/08/15 08:10:18;;;;;;;13.15;7.00;;;19.50;99.90;;;;;;5041205;28;20047;-77
2021/08/15 08:12:45;;;;;;;13.35;6.32;;;19.50;99.90;;;;;;5059009;28;20025;-78
2021/08/15 08:15:11;;;;;;;16.65;6.70;;;19.50;99.90;;;;;;5057627;28;20037;-77
2021/08/15 08:17:40;;;;;;;9.70;5.85;;;19.50;99.90;;;;;;5057406;28;20500;-78
2021/08/15 08:20:08;;;;;;;12.70;6.10;;;19.50;99.90;;;;;;5057206;28;20060;-78
2021/08/15 08:22:34;;;;;;;15.68;5.85;;;19.50;99.90;;;;;;5041301;28;20041;-78
2021/08/15 08:25:00;;;;;;;13.32;6.70;;;19.60;99.90;;;;;;5057052;28;20500;-77
2021/08/15 08:27:26;;;;;;;12.93;6.18;;;19.60;99.90;;;;;;5057400;28;20051;-85
2021/08/15 08:29:52;;;;;;;14.85;6.72;;;19.60;99.90;;;;;;5057753;28;20116;-84
2021/08/15 08:32:21;;;;;;;17.45;6.47;;;19.70;99.90;;;;;;5058966;28;20067;-85
2021/08/15 08:34:52;;;;;;;13.73;6.50;;;19.70;99.90;;;;;;5058344;28;20063;-85
2021/08/15 08:37:18;;;;;;;13.27;5.85;;;19.70;99.90;;;;;;5041815;28;20477;-84
2021/08/15 08:39:44;;;;;;;11.10;6.10;;;19.80;99.90;;;;;;5057295;28;20592;-85
2021/08/15 08:42:16;;;;;;;16.08;7.10;;;19.80;99.90;;;;;;5039770;28;20064;-85
2021/08/15 08:45:19;;;;;;;11.80;6.75;;;19.80;99.90;;;;;;5060715;28;20052;-85
2021/08/15 08:47:47;;;;;;;12.88;6.50;;;19.90;99.90;;;;;;5078301;28;20068;-85
2021/08/15 08:50:13;;;;;;;13.02;6.07;;;20.00;99.90;;;;;;5060683;28;20044;-85
2021/08/15 08:52:41;;;;;;;16.63;6.88;;;19.90;99.90;;;;;;5058727;28;20051;-84
2021/08/15 08:55:07;;;;;;;16.30;7.18;;;20.00;99.90;;;;;;5058233;28;20036;-85
2021/08/15 08:57:34;;;;;;;11.70;6.15;;;20.00;99.90;;;;;;5073888;28;20082;-85
2021/08/15 09:00:00;;;;;;;15.30;6.95;;;20.00;99.90;;;;;;5075337;28;20510;-85
2021/08/15 09:02:26;;;;;;;15.05;7.00;;;20.10;99.90;;;;;;5075824;28;20103;-85
2021/08/15 09:04:52;;;;;;;19.25;7.60;;;20.10;99.90;;;;;;5075041;28;20033;-77
2021/08/15 09:07:20;;;;;;;18.92;7.03;;;20.20;99.90;;;;;;5075060;28;20453;-78
2021/08/15 09:09:57;;;;;;;14.32;7.72;;;20.20;99.90;;;;;;5040550;28;20048;-77
2021/08/15 09:12:34;;;;;;;12.52;6.80;;;20.30;99.90;;;;;;5057157;28;20044;-78
2021/08/15 09:15:26;;;;;;;16.63;7.10;;;20.30;99.90;;;;;;5073476;28;20032;-78
2021/08/15 09:17:54;;;;;;;13.18;6.85;;;20.50;99.90;;;;;;5068688;28;20123;-85
2021/08/15 09:20:38;;;;;;;16.00;6.93;;;20.50;99.90;;;;;;5075005;28;20480;-85
2021/08/15 09:23:21;;;;;;;15.20;7.43;;;20.60;99.90;;;;;;5074606;28;20040;-84
2021/08/15 09:26:10;;;;;;;13.75;6.85;;;20.60;99.90;;;;;;5074424;28;20090;-84
2021/08/15 09:28:36;;;;;;;13.80;6.68;;;20.70;99.90;;;;;;5074432;28;20115;-85
2021/08/15 09:31:32;;;;;;;12.35;6.65;;;20.70;99.90;;;;;;5039310;28;20043;-85
2021/08/15 09:34:01;;;;;;;14.63;6.47;;;20.90;99.90;;;;;;5074348;28;20036;-78
2021/08/15 09:36:33;;;;;;;14.60;6.45;;;20.90;99.90;;;;;;5074549;28;20041;-78
2021/08/15 09:39:05;;;;;;;12.32;5.95;;;20.90;99.90;;;;;;5056373;28;20428;-78
2021/08/15 09:41:35;;;;;;;15.95;6.40;;;20.90;99.90;;;;;;5074345;28;20052;-78
2021/08/15 09:44:22;;;;;;;14.02;6.40;;;21.00;99.90;;;;;;5056398;28;20400;-78
2021/08/15 09:47:18;;;;;;;13.15;5.55;;;21.10;99.90;;;;;;5054190;28;20129;-78
2021/08/15 09:49:48;;;;;;;13.63;5.97;;;21.20;99.90;;;;;;5060133;28;20031;-85
2021/08/15 09:52:17;;;;;;;13.18;6.32;;;21.20;99.90;;;;;;5074870;28;20048;-85
2021/08/15 09:55:00;;;;;;;13.07;5.75;;;21.30;99.90;;;;;;5074298;28;20032;-85
2021/08/15 09:57:34;;;;;;;11.88;5.15;;;21.30;99.90;;;;;;5073161;28;20111;-86
2021/08/15 10:00:02;;;;;;;17.75;5.88;;;21.30;99.90;;;;;;5061506;28;20086;-86
2021/08/15 10:02:29;;;;;;;16.73;6.25;;;21.50;99.90;;;;;;5049411;28;20496;-86
2021/08/15 10:04:57;;;;;;;13.45;6.25;;;21.50;99.90;;;;;;5072739;28;20033;-86
2021/08/15 10:07:26;;;;;;;12.30;5.72;;;21.50;99.90;;;;;;5074099;28;20064;-87
2021/08/15 10:09:52;;;;;;;15.43;5.93;;;21.60;99.90;;;;;;5071053;28;20036;-87
2021/08/15 10:12:18;;;;;;;14.70;6.10;;;21.60;99.90;;;;;;5072667;28;20170;-86
2021/08/15 10:14:46;;;;;;;12.30;5.30;;;21.70;99.90;;;;;;5073787;28;20392;-87
2021/08/15 10:17:15;;;;;;;11.57;4.55;;;21.70;99.90;;;;;;5072463;28;20036;-87
2021/08/15 10:19:52;;;;;;;14.50;5.18;;;21.70;99.90;;;;;;5073493;28;20092;-86
2021/08/15 10:22:24;;;;;;;10.32;5.03;;;21.80;99.90;;;;;;5073585;28;20094;-86
2021/08/15 10:24:53;;;;;;;11.43;5.40;;;21.90;99.90;;;;;;5072324;28;20028;-87
2021/08/15 10:27:40;;;;;;;11.65;5.22;;;21.90;99.90;;;;;;5072316;28;20086;-87
2021/08/15 10:30:24;;;;;;;11.30;5.38;;;22.00;99.90;;;;;;5073567;28;20047;-86
2021/08/15 10:33:10;;;;;;;12.82;5.18;;;22.10;99.90;;;;;;5060447;28;20028;-87
2021/08/15 10:35:38;;;;;;;13.80;5.15;;;22.10;99.90;;;;;;5062623;28;20076;-87
2021/08/15 10:38:28;;;;;;;14.27;5.50;;;22.10;99.90;;;;;;5073445;28;20040;-87
2021/08/15 10:40:55;;;;;;;12.63;5.03;;;22.20;99.90;;;;;;5065198;28;20051;-87
2021/08/15 10:43:50;;;;;;;14.05;5.50;;;22.20;99.90;;;;;;5074117;28;20043;-86
2021/08/15 10:46:19;;;;;;;11.32;4.80;;;22.30;99.90;;;;;;5062415;28;20093;-86
2021/08/15 10:49:08;;;;;;;11.55;4.97;;;22.40;99.90;;;;;;5056356;28;20044;-85
2021/08/15 10:51:42;;;;;;;12.02;4.88;;;22.50;99.90;;;;;;5043587;28;20409;-86
2021/08/15 10:54:28;;;;;;;10.20;5.30;;;22.50;99.90;;;;;;5055725;28;20040;-86
2021/08/15 10:57:03;;;;;;;15.38;5.88;;;22.50;99.90;;;;;;5055635;28;20166;-86
2021/08/15 10:59:37;;;;;;;12.98;5.40;;;22.50;99.90;;;;;;5038764;28;20037;-87
2021/08/15 11:02:33;;;;;;;13.23;6.10;;;22.40;99.90;;;;;;5055237;28;20489;-86
2021/08/15 11:05:04;;;;;;;10.60;5.18;;;22.30;99.90;;;;;;5019110;28;20101;-86
2021/08/15 11:07:39;;;;;;;11.80;4.40;;;22.40;99.90;;;;;;5051539;28;20037;-87
2021/08/15 11:10:06;;;;;;;8.70;4.80;;;22.40;99.90;;;;;;5059410;28;20036;-86
2021/08/15 11:12:35;;;;;;;12.80;5.40;;;22.40;99.90;;;;;;5073353;28;20054;-86
2021/08/15 11:15:10;;;;;;;13.23;5.32;;;22.40;99.90;;;;;;5055155;28;20036;-86
2021/08/15 11:17:39;;;;;;;11.93;5.50;;;22.50;99.90;;;;;;5072674;28;20032;-86
2021/08/15 11:20:29;;;;;;;22.98;6.43;;;22.60;99.90;;;;;;5055649;28;20043;-86
2021/08/15 11:23:16;;;;;;;15.02;5.68;;;22.60;99.90;;;;;;5054756;28;20036;-87
2021/08/15 11:25:43;;;;;;;13.60;5.72;;;22.70;99.90;;;;;;5052738;28;20493;-86
2021/08/15 11:28:10;;;;;;;13.77;5.05;;;22.80;99.90;;;;;;5055017;28;20060;-87
2021/08/15 11:30:56;;;;;;;12.30;5.13;;;22.80;99.90;;;;;;5054764;28;20097;-86
2021/08/15 11:33:23;;;;;;;14.13;6.25;;;22.80;99.90;;;;;;5072261;28;20055;-86
2021/08/15 11:35:50;;;;;;;14.30;5.75;;;22.80;99.90;;;;;;5072601;28;20070;-87
2021/08/15 11:38:16;;;;;;;16.70;5.97;;;22.90;99.90;;;;;;5073103;28;20041;-87
2021/08/15 11:40:57;;;;;;;14.50;6.10;;;22.90;99.90;;;;;;5072797;28;20480;-87
2021/08/15 11:43:24;;;;;;;12.13;5.43;;;22.90;99.90;;;;;;5048031;28;20446;-87
2021/08/15 11:45:56;;;;;;;16.65;5.60;;;22.90;99.90;;;;;;5063277;28;20153;-87
2021/08/15 11:48:25;;;;;;;13.88;5.05;;;22.90;99.90;;;;;;5072779;28;20044;-86
2021/08/15 11:50:59;;;;;;;13.27;5.40;;;22.90;99.90;;;;;;5058905;28;20056;-87
2021/08/15 11:53:33;;;;;;;13.75;5.45;;;23.00;99.90;;;;;;5072560;28;20035;-78
2021/08/15 11:56:08;;;;;;;14.97;6.17;;;23.10;99.90;;;;;;5071382;28;20037;-87
2021/08/15 11:58:35;;;;;;;12.70;5.03;;;23.20;99.90;;;;;;5049779;28;20064;-78
2021/08/15 12:01:07;;;;;;;14.57;5.65;;;23.20;99.90;;;;;;5071082;28;20052;-78
2021/08/15 12:03:33;;;;;;;14.85;5.82;;;23.30;99.90;;;;;;5071150;28;20064;-78
2021/08/15 12:06:07;;;;;;;15.80;5.70;;;23.30;99.90;;;;;;5070864;28;20398;-80
2021/08/15 12:08:35;;;;;;;11.80;5.32;;;23.40;99.90;;;;;;5071031;28;20056;-78
2021/08/15 12:11:20;;;;;;;14.55;6.05;;;23.50;99.90;;;;;;5071086;28;20036;-78
2021/08/15 12:13:47;;;;;;;14.15;5.20;;;23.50;99.90;;;;;;5071325;28;20393;-86
2021/08/15 12:16:15;;;;;;;14.35;5.47;;;23.50;99.90;;;;;;5059082;28;20079;-87
2021/08/15 12:18:46;;;;;;;14.93;5.63;;;23.50;99.90;;;;;;5072176;28;20427;-86
2021/08/15 12:21:20;;;;;;;11.13;5.60;;;23.50;99.90;;;;;;5071119;28;20044;-86
2021/08/15 12:24:11;;;;;;;16.95;6.05;;;23.40;99.90;;;;;;5059441;28;20487;-85
2021/08/15 12:27:10;;;;;;;11.95;5.60;;;23.20;99.90;;;;;;5072375;28;20099;-86
2021/08/15 12:29:40;;;;;;;16.05;5.28;;;23.10;99.90;;;;;;5075517;28;20082;-86
2021/08/15 12:32:13;;;;;;;12.40;5.28;;;23.20;99.90;;;;;;5072207;28;20041;-86
2021/08/15 12:34:41;;;;;;;13.90;5.10;;;23.30;99.90;;;;;;5058480;28;20380;-86
2021/08/15 12:37:23;;;;;;;12.40;5.43;;;23.30;99.90;;;;;;5075953;28;20389;-86
2021/08/15 12:40:08;;;;;;;12.95;5.32;;;23.50;99.90;;;;;;5075122;28;20385;-86
2021/08/15 12:42:36;;;;;;;10.45;5.15;;;23.60;99.90;;;;;;5074631;28;20032;-86
2021/08/15 12:45:05;;;;;;;13.32;5.18;;;23.60;99.90;;;;;;5067955;28;20068;-86
2021/08/15 12:47:35;;;;;;;10.10;4.95;;;23.30;99.90;;;;;;5074956;28;20123;-87
2021/08/15 12:50:14;;;;;;;14.07;5.00;;;23.60;99.90;;;;;;5075859;28;20033;-86
2021/08/15 12:52:43;;;;;;;12.23;5.10;;;23.70;99.90;;;;;;5057922;28;20035;-86
2021/08/15 12:55:13;;;;;;;13.10;4.95;;;23.80;99.90;;;;;;5057896;28;20043;-87